This is the latest recevied weather packets stored in our database for station/object SP8PUB-10. If no packets are shown the sender has not sent any weather packets the latest 10 day(s).
| Time | Temp. | Humidity | Pressure | Rain* | Wind** | Luminosity | Snow |
|---|---|---|---|---|---|---|---|
| 1777965190 | 35° C | 33% | 1013.5 hPa | - | - | - | - |
| 1777964290 | 33.33° C | 34% | 1013.7 hPa | - | - | - | - |
| 1777963390 | 33.89° C | 34% | 1013.8 hPa | - | - | - | - |
| 1777962489 | 33.33° C | 36% | 1013.8 hPa | - | - | - | - |
| 1777961589 | 31.11° C | 36% | 1013.9 hPa | - | - | - | - |
| 1777960689 | 32.22° C | 36% | 1013.8 hPa | - | - | - | - |
| 1777959789 | 31.11° C | 37% | 1013.8 hPa | - | - | - | - |
| 1777958889 | 28.89° C | 38% | 1014 hPa | - | - | - | - |
| 1777957989 | 26.67° C | 40% | 1013.8 hPa | - | - | - | - |
| 1777957089 | 24.44° C | 44% | 1013.7 hPa | - | - | - | - |
| 1777956189 | 23.33° C | 46% | 1013.7 hPa | - | - | - | - |
| 1777955289 | 20.56° C | 49% | 1013.7 hPa | - | - | - | - |
| 1777954389 | 18.89° C | 52% | 1013.5 hPa | - | - | - | - |
| 1777932791 | 15° C | 56% | 1013.9 hPa | - | - | - | - |
| 1777931891 | 15° C | 55% | 1013.9 hPa | - | - | - | - |
| 1777930991 | 15° C | 55% | 1014 hPa | - | - | - | - |
| 1777930091 | 15° C | 55% | 1014 hPa | - | - | - | - |
| 1777929191 | 15.56° C | 54% | 1013.9 hPa | - | - | - | - |
| 1777926491 | 16.67° C | 51% | 1014.1 hPa | - | - | - | - |
| 1777922890 | 17.22° C | 49% | 1014.2 hPa | - | - | - | - |
| 1777921090 | 18.33° C | 47% | 1014.1 hPa | - | - | - | - |
| 1777919290 | 18.89° C | 48% | 1014.1 hPa | - | - | - | - |
| 1777918390 | 19.44° C | 47% | 1013.9 hPa | - | - | - | - |
| 1777915689 | 22.22° C | 43% | 1013.8 hPa | - | - | - | - |
| 1777914789 | 22.78° C | 41% | 1013.7 hPa | - | - | - | - |
* Rain since midnight (hover to see other rain measurements)
** Current wind speed in m/s (hover to see current wind gust speed)